Donner Trail Elementary, Kingvale, California Weather observations

Data are for observation ending at time listed.
 Day   Time    Ave.   Ave.  Ave.  Vector   Max.   Stn.    Total    Solar   Ave.   Snow 
  of    of     Air    Rel.  Wind   Wind    Wind   Baro.  Precip.   Rad.    Soil   Depth
Year   Day     Temp.  Hum.  Speed  Dir.    Gust   Pres.                    Temp.       
2014   (PST)    F      %     mph   deg.    mph     mb.     in.     W/m2     F      in. 
---------------------------------------------------------------------------------------  
 110    5:10   19.5    93    0.4   274      0.4   819.0    0.00       0    999.0  212.2
 110    5:20   19.7    94    0.4   271      0.4   819.0    0.00       9    999.0  212.2
 110    5:30   20.0    94    0.4   259      0.4   819.1    0.00      64    999.0  212.2
 110    5:40   20.4    94    0.4   274      0.4   819.3    0.00      72    999.0  212.2
 110    5:50   21.0    94    0.4   274      0.4   819.4    0.00     133    999.0  212.2
 110    6:00   21.7    93    0.4   277      0.4   819.4    0.00     157    999.0  212.2
 110    6:10   22.7    92    0.4   268      0.4   819.4    0.00     206    999.0  212.2
 110    6:20   23.7    89    0.4   291      0.4   819.5    0.00     233    999.0  212.2
 110    6:30   24.9    85    0.4   265      0.4   819.5    0.00     276    999.0  212.2
 110    6:40   26.6    82    0.4   288      0.4   819.5    0.00     277    999.0  212.2
 110    6:50   28.6    79    0.4   300      0.4   819.4    0.00     338    999.0  212.2
 110    7:00   30.9    72    0.4   289      0.4   819.4    0.00     383    999.0  212.2
 110    7:10   35.2    42    0.4   281      0.4   819.4    0.00     414    999.0  212.2
 110    7:20   38.7    32    0.4   288      0.4   819.4    0.00     478    999.0  212.2
 110    7:30   40.0    30    0.4   286      0.4   819.5    0.00     477    999.0  212.2
 110    7:40   40.9    30    0.4   266      0.4   819.5    0.00     513    999.0  212.2
 110    7:50   41.7    30    0.4   270      0.4   819.5    0.00     529    999.0  212.2
 110    8:00   42.7    29    0.4   280      0.4   819.6    0.00     586    999.0  212.2
 110    8:10   43.7    29    0.4   270      0.4   819.8    0.00     587    999.0  212.2
 110    8:20   44.5    28    0.4   269      0.4   819.8    0.00     652    999.0  212.2
 110    8:30   45.4    28    0.4   280      0.4   819.8    0.00     664    999.0  212.2
 110    8:40   46.1    26    0.4   275      0.4   819.8    0.00     722    999.0  212.2
 110    8:50   46.3    26    0.4   267      0.4   819.8    0.00     724    999.0  212.2
 110    9:00   46.6    25    0.4   261      0.4   819.9    0.00     780    999.0  212.2
 110    9:10   47.2    25    0.4   253      0.4   820.0    0.00     774    999.0  212.2
 110    9:20   47.9    26    0.4   249      0.4   820.0    0.00     797    999.0  212.2
 110    9:30   49.0    25    0.4   257      0.4   820.1    0.00     840    999.0  212.2
 110    9:40   49.7    24    0.4   265      0.4   820.0    0.00     856    999.0  212.2
 110    9:50   50.3    24    0.4   253      0.4   820.0    0.00     857    999.0  212.2
 110   10:00   51.1    23    0.4   249      0.4   820.0    0.00     844    999.0  212.2
 110   10:10   51.7    22    0.4   260      0.4   820.0    0.00     833    999.0  212.2
 110   10:20   52.1    20    0.4   307      0.4   820.0    0.00     863    999.0  212.2
 110   10:30   51.9    18    0.4   301      0.4   820.0    0.00     906    999.0  212.2
 110   10:40   51.9    17    0.4   213      0.4   819.9    0.00     899    999.0  212.2
 110   10:50   53.0    16    0.4   310      0.4   819.8    0.00     930    999.0  212.2
 110   11:00   53.7    14    0.4   323      0.4   819.7    0.00     928    999.0  212.2
 110   11:10   55.3    15    0.4   284      0.4   819.7    0.00     931    999.0  212.2
 110   11:20   55.3    15    0.4   340      0.4   819.7    0.00     931    999.0  212.2
 110   11:30   56.0    14    0.4    61      0.4   819.7    0.00     930    999.0  212.2
 110   11:40   57.1    15    0.4   210      0.4   819.6    0.00     930    999.0  212.2
 110   11:50   56.9    14    0.4   339      0.4   819.6    0.00     929    999.0  212.2
 110   12:00   57.5    14    0.4   319      0.4   819.5    0.00     927    999.0  212.2
 110   12:10   57.2    14    0.4   300      0.4   819.4    0.00     915    999.0  212.2
 110   12:20   58.0    15    0.4   266      0.4   819.3    0.00     931    999.0  212.2
 110   12:30   60.2    14    0.4   287      0.4   819.3    0.00     919    999.0  212.2
 110   12:40   58.0    14    0.4   336      0.4   819.2    0.00     920    999.0  212.2
 110   12:50   61.1    14    0.4   261      0.4   819.1    0.00     874    999.0  212.2
 110   13:00   60.2    14    0.4   219      0.4   819.1    0.00     862    999.0  212.2
 110   13:10   61.8    13    0.4   284      0.4   819.1    0.00     862    999.0  212.2
 110   13:20   61.6    13    0.4   292      0.4   819.1    0.00     860    999.0  212.2
 110   13:30   61.9    13    0.4   311      0.4   819.0    0.00     763    999.0  212.2
 110   13:40   60.8    13    0.4   328      0.4   818.8    0.00     565    999.0  212.2
 110   13:50   57.0    15    0.4    34      0.4   818.7    0.00     427    999.0  212.2
 110   14:00   55.7    18    0.4    46      0.4   818.7    0.00     203    999.0  212.2
 110   14:10   55.6    22    0.4    72      0.4   818.7    0.00     707    999.0  212.2
 110   14:20   57.7    24    0.4    55      0.4   818.7    0.00     626    999.0  212.2
 110   14:30   55.3    29    0.4    50      0.4   818.7    0.00     659    999.0  212.2
 110   14:40   55.1    31    0.4    62      0.4   818.7    0.00     498    999.0  212.2
 110   14:50   55.4    31    0.4    63      0.4   818.7    0.00     656    999.0  212.2
 110   15:00   55.7    30    0.4    43      0.4   818.7    0.00     601    999.0  212.2
 110   15:10   55.9    30    0.4    57      0.4   818.8    0.00     580    999.0  212.2
 110   15:20   55.8    30    0.4    54      0.4   818.8    0.00     519    999.0  212.2
 110   15:30   56.4    28    0.4    77      0.4   818.9    0.00     511    999.0  212.2
 110   15:40   55.3    29    0.4    60      0.4   818.9    0.00     483    999.0  212.2
 110   15:50   55.8    28    0.4    66      0.4   818.9    0.00     476    999.0  212.2
 110   16:00   54.9    29    0.4    66      0.4   819.0    0.00     415    999.0  212.2
 110   16:10   54.9    29    0.4    70      0.4   819.0    0.00     408    999.0  212.2
 110   16:20   54.5    30    0.4    55      0.4   819.0    0.00     347    999.0  212.2
 110   16:30   54.6    30    0.4    83      0.4   819.1    0.00     334    999.0  212.2
 110   16:40   54.7    30    0.4    83      0.4   819.0    0.00     276    999.0  212.2
 110   16:50   55.1    30    0.4    75      0.4   819.0    0.00     259    999.0  212.2
 110   17:00   54.0    32    0.4    78      0.4   819.1    0.00     207    999.0  212.2
 110   17:10   53.0    34    0.4    73      0.4   819.1    0.00     193    999.0  212.2
 110   17:20   50.6    37    0.4    73      0.4   819.1    0.00      99    999.0  212.2
 110   17:30   49.0    39    0.4    74      0.4   819.1    0.00      31    999.0  212.2
 110   17:40   48.1    41    0.4    86      0.4   819.0    0.00       4    999.0  212.2
 110   17:50   47.3    45    0.4   128      0.4   819.0    0.00       0    999.0  212.2
 110   18:00   46.1    51    0.4   113      0.4   819.0    0.00       0    999.0  212.2
 110   18:10   44.5    55    0.4    91      0.4   819.1    0.00       0    999.0  212.2
 110   18:20   43.2    58    0.4    88      0.4   819.2    0.00       0    999.0  212.2
 110   18:30   41.9    62    0.4   353      0.4   819.2    0.00       0    999.0  212.2
 110   18:40   40.9    64    0.4   293      0.4   819.2    0.00       0    999.0  212.2
 110   18:50   39.8    67    0.4   301      0.4   819.3    0.00       0    999.0  212.2
 110   19:00   38.9    69    0.4   291      0.4   819.3    0.00       0    999.0  212.2
 110   19:10   38.0    70    0.4   296      0.4   819.4    0.00       0    999.0  212.2
 110   19:20   37.1    72    0.4   327      0.4   819.4    0.00       0    999.0  212.2
 110   19:30   36.2    74    0.4   285      0.4   819.4    0.00       0    999.0  212.2
 110   19:40   35.4    75    0.4   289      0.4   819.5    0.00       0    999.0  212.2
 110   19:50   34.8    77    0.4   284      0.4   819.4    0.00       0    999.0  212.2
 110   20:00   34.3    78    0.4   286      0.4   819.5    0.00       0    999.0  212.2
 110   20:10   33.9    80    0.4   289      0.4   819.6    0.00       0    999.0  212.2
 110   20:20   33.4    80    0.4   291      0.4   819.5    0.00       0    999.0  212.2
 110   20:30   32.8    81    0.4   296      0.4   819.3    0.00       0    999.0  212.2
 110   20:40   32.5    82    0.4   302      0.4   819.2    0.00       0    999.0  212.2
 110   20:50   32.4    83    0.4   262      0.4   819.2    0.00       0    999.0  212.2
 110   21:00   32.2    83    0.4   258      0.4   819.1    0.00       0    999.0  212.2
 110   21:10   32.1    83    0.4   300      0.4   819.2    0.00       0    999.0  212.2
 110   21:20   31.9    83    0.4   262      0.4   819.2    0.00       0    999.0  212.2
 110   21:30   31.5    84    0.4   288      0.4   819.2    0.00       0    999.0  212.2
 110   21:40   31.1    85    0.4   265      0.4   819.1    0.00       0    999.0  212.2
 110   21:50   30.7    87    0.4   272      0.4   819.1    0.00       0    999.0  212.2
 110   22:00   30.5    88    0.4   283      0.4   819.0    0.00       0    999.0  212.2
 110   22:10   30.1    89    0.4   278      0.4   819.0    0.00       0    999.0  212.2
 110   22:20   29.8    90    0.4   299      0.4   818.9    0.00       0    999.0  212.2
 110   22:30   29.4    90    0.4   278      0.4   819.0    0.00       0    999.0  212.2
 110   22:40   29.1    90    0.4   284      0.4   818.9    0.00       0    999.0  212.2
 110   22:50   28.9    91    0.4   290      0.4   818.9    0.00       0    999.0  212.2
 110   23:00   28.7    92    0.4   285      0.4   819.0    0.00       0    999.0  212.2
 110   23:10   28.6    92    0.4   261      0.4   818.9    0.00       0    999.0  212.2
 110   23:20   28.4    92    0.4   261      0.4   818.8    0.00       0    999.0  212.2
 110   23:30   28.3    93    0.4   261      0.4   818.8    0.00       0    999.0  212.2
 110   23:40   28.1    93    0.4   262      0.4   818.8    0.00       0    999.0  212.2
 110   23:50   27.9    93    0.4   262      0.4   818.7    0.00       0    999.0  212.2
 111    0:00   27.8    94    0.4   261      0.4   818.6    0.00       0    999.0  212.2
 111    0:10   27.7    94    0.4   268      0.4   818.5    0.00       0    999.0  212.2
 111    0:20   27.5    94    0.4   277      0.4   818.4    0.00       0    999.0  212.2
 111    0:30   27.4    95    0.4   288      0.4   818.4    0.00       0    999.0  212.2
 111    0:40   27.2    95    0.4   266      0.4   818.4    0.00       0    999.0  212.2
 111    0:50   27.0    95    0.4   286      0.4   818.2    0.00       0    999.0  212.2
 111    1:00   26.8    95    0.4   266      0.4   818.1    0.00       0    999.0  212.2
 111    1:10   26.5    95    0.4   276      0.4   818.1    0.00       0    999.0  212.2
 111    1:20   26.4    96    0.4   273      0.4   817.9    0.00       0    999.0  212.2
 111    1:30   26.5    96    0.4   257      0.4   817.9    0.00       0    999.0  212.2
 111    1:40   26.4    96    0.4   276      0.4   817.9    0.00       0    999.0  212.2
 111    1:50   26.2    96    0.4   276      0.4   817.8    0.00       0    999.0  212.2
 111    2:00   26.1    96    0.4   264      0.4   817.8    0.00       0    999.0  212.2
 111    2:10   25.7    96    0.4   268      0.4   817.7    0.00       0    999.0  212.2
 111    2:20   25.4    96    0.4   326      0.4   817.8    0.00       0    999.0  212.2
 111    2:30   25.2    96    0.4   280      0.4   817.7    0.00       0    999.0  212.2
 111    2:40   25.3    97    0.4   265      0.4   817.7    0.00       0    999.0  212.2
 111    2:50   25.1    97    0.4   253      0.4   817.7    0.00       0    999.0  212.2
 111    3:00   24.8    97    0.4   264      0.4   817.7    0.00       0    999.0  212.2
 111    3:10   24.8    97    0.4   272      0.4   817.7    0.00       0    999.0  212.2
 111    3:20   24.8    97    0.4   271      0.4   817.6    0.00       0    999.0  212.2
 111    3:30   24.7    97    0.4   280      0.4   817.6    0.00       0    999.0  212.2
 111    3:40   24.6    97    0.4   275      0.4   817.5    0.00       0    999.0  212.2
 111    3:50   24.4    97    0.4   272      0.4   817.4    0.00       0    999.0  212.2
 111    4:00   24.4    98    0.4   266      0.4   817.5    0.00       0    999.0  212.2
 111    4:10   24.3    98    0.4   279      0.4   817.4    0.00       0    999.0  212.2
 111    4:20   24.1    98    0.4   273      0.4   817.4    0.00       0    999.0  212.2
 111    4:30   23.9    98    0.4   274      0.4   817.3    0.00       0    999.0  212.2
 111    4:40   23.7    98    0.4   294      0.4   817.3    0.00       0    999.0  212.2
 111    4:50   23.6    98    0.4   291      0.4   817.3    0.00       0    999.0  212.2
 111    5:00   23.7    98    0.4   282      0.4   817.3    0.00       0    999.0  212.2

Return to Donner Trail Elementary graphs page.


Western Regional Climate Center,wrcc@dri.edu